createdAt,value
2023-04-04T00:01:21.692Z,99185.06
2023-04-04T00:03:26.844Z,99183.38
2023-04-04T00:05:31.835Z,99184.22
2023-04-04T00:07:39.324Z,99189.41
2023-04-04T00:09:44.205Z,99181.69
2023-04-04T00:11:49.309Z,99183.44
2023-04-04T00:13:53.962Z,99180.00
2023-04-04T00:15:59.041Z,99183.47
2023-04-04T00:18:04.285Z,99181.75
2023-04-04T00:20:10.516Z,99173.19
2023-04-04T00:22:15.708Z,99176.66
2023-04-04T00:24:23.213Z,99173.25
2023-04-04T00:26:28.434Z,99178.41
2023-04-04T00:28:33.417Z,99178.44
2023-04-04T00:30:38.586Z,99168.13
2023-04-04T00:32:43.725Z,99155.28
2023-04-04T00:34:48.726Z,99164.72
2023-04-04T00:36:53.872Z,99169.00
2023-04-04T00:38:58.996Z,99164.75
2023-04-04T00:41:06.912Z,99164.75
2023-04-04T00:43:12.519Z,99166.44
2023-04-04T00:45:17.497Z,99169.03
2023-04-04T00:47:25.127Z,99164.72
2023-04-04T00:49:30.096Z,99156.16
2023-04-04T00:51:35.141Z,99155.31
2023-04-04T00:53:40.317Z,99158.75
2023-04-04T00:55:45.382Z,99153.59
2023-04-04T00:57:53.324Z,99153.59
2023-04-04T01:00:00.924Z,99154.44
2023-04-04T01:02:05.911Z,99160.44
2023-04-04T01:04:11.630Z,99154.44
2023-04-04T01:06:17.204Z,99137.25
2023-04-04T01:08:26.011Z,99145.88
2023-04-04T01:10:33.254Z,99145.88
2023-04-04T01:12:38.511Z,99149.31
2023-04-04T01:14:46.728Z,99149.28
2023-04-04T01:16:53.569Z,99147.59
2023-04-04T01:19:01.906Z,99148.44
2023-04-04T01:21:12.937Z,99149.28
2023-04-04T01:23:20.639Z,99152.72
2023-04-04T01:25:34.130Z,99141.56
2023-04-04T01:27:46.585Z,99142.44
2023-04-04T01:29:54.535Z,99144.16
2023-04-04T01:32:04.107Z,99141.56
2023-04-04T01:34:15.804Z,99145.00
2023-04-04T01:36:26.096Z,99140.69
2023-04-04T01:38:37.230Z,99134.69
2023-04-04T01:40:51.105Z,99137.28
2023-04-04T01:42:58.920Z,99146.72
2023-04-04T01:45:07.093Z,99141.59
2023-04-04T01:47:16.110Z,99146.72
2023-04-04T01:49:21.096Z,99140.72
2023-04-04T01:51:26.931Z,99144.13
2023-04-04T01:53:32.867Z,99140.66
2023-04-04T01:55:37.978Z,99145.78
2023-04-04T01:57:45.559Z,99134.63
2023-04-04T01:59:50.585Z,99136.28
2023-04-04T02:01:55.522Z,99136.28
2023-04-04T02:04:00.583Z,99139.66
2023-04-04T02:06:05.739Z,99138.78
2023-04-04T02:08:10.664Z,99136.19
2023-04-04T02:10:24.399Z,99143.88
2023-04-04T02:12:29.698Z,99136.16
2023-04-04T02:14:38.138Z,99131.03
2023-04-04T02:16:44.157Z,99135.28
2023-04-04T02:18:49.190Z,99131.81
2023-04-04T02:20:59.318Z,99129.28
2023-04-04T02:23:04.213Z,99130.09
2023-04-04T02:25:09.457Z,99123.22
2023-04-04T02:27:14.124Z,99127.50
2023-04-04T02:29:19.876Z,99137.75
2023-04-04T02:31:27.500Z,99130.06
2023-04-04T02:33:34.041Z,99127.47
2023-04-04T02:35:44.844Z,99124.00
2023-04-04T02:37:50.076Z,99121.41
2023-04-04T02:40:05.762Z,99119.66
2023-04-04T02:42:14.587Z,99120.50
2023-04-04T02:44:19.708Z,99117.09
2023-04-04T02:46:29.426Z,99116.22
2023-04-04T02:48:40.104Z,99118.78
2023-04-04T02:50:45.399Z,99114.47
2023-04-04T02:52:51.921Z,99111.09
2023-04-04T02:54:57.163Z,99118.75
2023-04-04T02:57:09.703Z,99118.72
2023-04-04T02:59:14.741Z,99118.69
2023-04-04T03:01:19.735Z,99116.09
2023-04-04T03:03:27.535Z,99116.09
2023-04-04T03:05:33.710Z,99116.03
2023-04-04T03:07:39.405Z,99107.50
2023-04-04T03:09:45.493Z,99108.38
2023-04-04T03:11:50.486Z,99109.19
2023-04-04T03:13:56.236Z,99112.56
2023-04-04T03:16:10.630Z,99113.41
2023-04-04T03:18:24.125Z,99112.53
2023-04-04T03:20:31.819Z,99117.66
2023-04-04T03:22:36.932Z,99110.78
2023-04-04T03:24:41.818Z,99108.19
2023-04-04T03:26:46.749Z,99109.88
2023-04-04T03:28:51.858Z,99108.16
2023-04-04T03:30:58.970Z,99100.44
2023-04-04T03:33:08.749Z,99107.22
2023-04-04T03:35:13.769Z,99107.13
2023-04-04T03:37:22.502Z,99108.03
2023-04-04T03:39:32.001Z,99108.03
2023-04-04T03:41:38.276Z,99112.31
2023-04-04T03:43:45.315Z,99108.94
2023-04-04T03:45:50.713Z,99104.63
2023-04-04T03:47:55.651Z,99109.75
2023-04-04T03:50:00.492Z,99107.13
2023-04-04T03:52:07.001Z,99105.31
2023-04-04T03:54:14.798Z,99099.41
2023-04-04T03:56:19.808Z,99103.66
2023-04-04T03:58:25.049Z,99102.81
2023-04-04T04:00:29.952Z,99113.94
2023-04-04T04:02:34.913Z,99108.75
2023-04-04T04:04:39.936Z,99109.56
2023-04-04T04:06:44.760Z,99112.09
2023-04-04T04:08:49.666Z,99106.91
2023-04-04T04:10:57.866Z,99108.59
2023-04-04T04:13:05.572Z,99106.91
2023-04-04T04:15:12.316Z,99114.63
2023-04-04T04:17:19.889Z,99112.94
2023-04-04T04:19:25.800Z,99106.16
2023-04-04T04:21:30.772Z,99109.59
2023-04-04T04:23:35.916Z,99107.88
2023-04-04T04:25:40.819Z,99106.16
2023-04-04T04:27:58.826Z,99099.28
2023-04-04T04:30:05.257Z,99112.91
2023-04-04T04:32:19.168Z,99104.38
2023-04-04T04:34:29.117Z,99105.19
2023-04-04T04:36:37.428Z,99108.59
2023-04-04T04:39:02.767Z,99105.16
2023-04-04T04:41:11.707Z,99106.00
2023-04-04T04:43:24.814Z,99108.50
2023-04-04T04:45:29.749Z,99104.22
2023-04-04T04:47:44.971Z,99105.97
2023-04-04T04:49:54.216Z,99113.72
2023-04-04T04:52:09.860Z,99111.97
2023-04-04T04:54:19.482Z,99114.47
2023-04-04T04:56:29.612Z,99114.44
2023-04-04T04:58:45.342Z,99122.16
2023-04-04T05:00:59.686Z,99113.66
2023-04-04T05:03:12.927Z,99112.81
2023-04-04T05:05:25.066Z,99106.84
2023-04-04T05:07:34.000Z,99115.44
2023-04-04T05:09:38.933Z,99112.03
2023-04-04T05:11:44.339Z,99108.63
2023-04-04T05:13:53.220Z,99105.19
2023-04-04T05:15:59.360Z,99106.00
2023-04-04T05:18:04.895Z,99109.41
2023-04-04T05:20:10.609Z,99111.84
2023-04-04T05:22:16.853Z,99106.69
2023-04-04T05:24:26.472Z,99112.66
2023-04-04T05:26:31.370Z,99112.66
2023-04-04T05:28:36.557Z,99116.91
2023-04-04T05:30:46.949Z,99120.41
2023-04-04T05:32:58.848Z,99118.75
2023-04-04T05:35:07.383Z,99117.94
2023-04-04T05:37:13.638Z,99118.78
2023-04-04T05:39:19.391Z,99125.63
2023-04-04T05:41:36.735Z,99117.03
2023-04-04T05:43:49.326Z,99120.50
2023-04-04T05:46:02.019Z,99119.56
2023-04-04T05:48:13.264Z,99123.03
2023-04-04T05:50:27.333Z,99118.75
2023-04-04T05:52:38.295Z,99126.50
2023-04-04T05:54:45.003Z,99123.97
2023-04-04T05:56:55.326Z,99131.66
2023-04-04T05:59:32.610Z,99131.63
2023-04-04T06:01:44.775Z,99124.84
2023-04-04T06:03:52.403Z,99131.75
2023-04-04T06:06:04.773Z,99124.06
2023-04-04T06:08:11.388Z,99127.53
2023-04-04T06:10:16.309Z,99132.69
2023-04-04T06:12:21.565Z,99134.41
2023-04-04T06:14:27.235Z,99122.44
2023-04-04T06:16:31.979Z,99125.84
2023-04-04T06:18:39.571Z,99133.53
2023-04-04T06:20:44.657Z,99134.41
2023-04-04T06:22:49.970Z,99129.31
2023-04-04T06:24:56.139Z,99129.28
2023-04-04T06:27:03.037Z,99126.72
2023-04-04T06:29:08.529Z,99134.44
2023-04-04T06:31:16.290Z,99131.88
2023-04-04T06:33:21.800Z,99131.91
2023-04-04T06:35:30.328Z,99136.28
2023-04-04T06:37:37.560Z,99137.25
2023-04-04T06:39:51.749Z,99133.94
2023-04-04T06:42:00.723Z,99125.44
2023-04-04T06:44:08.169Z,99127.16
2023-04-04T06:46:14.446Z,99133.19
2023-04-04T06:48:19.472Z,99128.09
2023-04-04T06:50:25.197Z,99132.44
2023-04-04T06:52:32.741Z,99126.50
2023-04-04T06:54:38.100Z,99122.22
2023-04-04T06:56:43.150Z,99121.38
2023-04-04T06:58:48.087Z,99123.13
2023-04-04T07:00:53.288Z,99116.34
2023-04-04T07:03:00.456Z,99121.53
2023-04-04T07:05:05.793Z,99124.16
2023-04-04T07:07:10.464Z,99118.97
2023-04-04T07:09:27.982Z,99121.59
2023-04-04T07:11:34.360Z,99122.47
2023-04-04T07:13:40.836Z,99125.94
2023-04-04T07:15:50.282Z,99130.28
2023-04-04T07:17:55.330Z,99130.28
2023-04-04T07:20:01.746Z,99132.03
2023-04-04T07:22:08.000Z,99125.25
2023-04-04T07:24:12.909Z,99129.53
2023-04-04T07:26:20.406Z,99132.97
2023-04-04T07:28:25.434Z,99130.41
2023-04-04T07:30:33.019Z,99128.66
2023-04-04T07:32:38.416Z,99125.19
2023-04-04T07:34:44.719Z,99130.31
2023-04-04T07:36:49.698Z,99126.84
2023-04-04T07:38:54.697Z,99120.84
2023-04-04T07:40:59.634Z,99125.16
2023-04-04T07:43:07.175Z,99123.44
2023-04-04T07:45:12.788Z,99130.34
2023-04-04T07:47:17.882Z,99125.22
2023-04-04T07:49:23.097Z,99131.19
2023-04-04T07:51:31.633Z,99129.53
2023-04-04T07:53:36.532Z,99126.94
2023-04-04T07:55:41.492Z,99122.63
2023-04-04T07:57:47.350Z,99129.47
2023-04-04T07:59:55.000Z,99124.28
2023-04-04T08:01:59.962Z,99127.72
2023-04-04T08:04:05.879Z,99129.47
2023-04-04T08:06:11.525Z,99119.97
2023-04-04T08:08:16.680Z,99123.31
2023-04-04T08:10:22.008Z,99131.03
2023-04-04T08:12:27.001Z,99124.00
2023-04-04T08:14:32.024Z,99121.38
2023-04-04T08:16:39.587Z,99127.31
2023-04-04T08:18:44.848Z,99122.19
2023-04-04T08:20:49.880Z,99115.44
2023-04-04T08:22:54.959Z,99113.72
2023-04-04T08:25:01.009Z,99116.31
2023-04-04T08:27:06.147Z,99112.75
2023-04-04T08:29:11.155Z,99107.53
2023-04-04T08:31:16.136Z,99110.13
2023-04-04T08:33:28.984Z,99118.72
2023-04-04T08:35:39.475Z,99105.72
2023-04-04T08:37:47.534Z,99108.16
2023-04-04T08:39:52.424Z,99106.28
2023-04-04T08:42:05.689Z,99114.88
2023-04-04T08:44:13.744Z,99110.56
2023-04-04T08:46:19.196Z,99114.00
2023-04-04T08:48:30.090Z,99109.59
2023-04-04T08:50:37.163Z,99118.22
2023-04-04T08:52:43.493Z,99108.06
2023-04-04T08:54:49.507Z,99111.44
2023-04-04T08:56:54.490Z,99115.78
2023-04-04T08:58:59.559Z,99106.31
2023-04-04T09:01:04.550Z,99105.34
2023-04-04T09:03:17.874Z,99108.78
2023-04-04T09:05:25.830Z,99113.09
2023-04-04T09:07:31.732Z,99115.84
2023-04-04T09:09:38.089Z,99110.72
2023-04-04T09:11:43.498Z,99113.31
2023-04-04T09:13:49.347Z,99114.25
2023-04-04T09:15:57.657Z,99110.00
2023-04-04T09:18:02.895Z,99115.19
2023-04-04T09:20:44.184Z,99112.56
2023-04-04T09:22:49.406Z,99108.25
2023-04-04T09:24:54.276Z,99107.34
2023-04-04T09:26:59.192Z,99111.63
2023-04-04T09:29:04.179Z,99108.13
2023-04-04T09:31:11.309Z,99113.38
2023-04-04T09:33:18.632Z,99114.38
2023-04-04T09:35:23.790Z,99121.13
2023-04-04T09:37:31.455Z,99117.66
2023-04-04T09:39:37.099Z,99108.25
2023-04-04T09:41:42.512Z,99115.00
2023-04-04T09:43:48.664Z,99109.84
2023-04-04T09:45:55.177Z,99110.72
2023-04-04T09:48:00.633Z,99108.00
2023-04-04T09:50:06.120Z,99109.66
2023-04-04T09:52:21.697Z,99108.72
2023-04-04T09:54:30.765Z,99115.59
2023-04-04T09:56:39.212Z,99113.84
2023-04-04T09:59:02.597Z,99099.09
2023-04-04T10:01:12.835Z,99103.13
2023-04-04T10:03:19.079Z,99106.38
2023-04-04T10:05:24.081Z,99096.75
2023-04-04T10:07:29.842Z,99101.88
2023-04-04T10:09:40.397Z,99102.63
2023-04-04T10:11:45.808Z,99104.44
2023-04-04T10:13:55.151Z,99107.00
2023-04-04T10:16:02.102Z,99099.16
2023-04-04T10:18:08.627Z,99099.19
2023-04-04T10:20:14.977Z,99090.53
2023-04-04T10:22:21.010Z,99094.13
2023-04-04T10:24:25.985Z,99092.59
2023-04-04T10:26:33.624Z,99091.16
2023-04-04T10:28:38.601Z,99095.78
2023-04-04T10:30:59.363Z,99088.31
2023-04-04T10:33:15.791Z,99089.94
2023-04-04T10:35:25.630Z,99092.34
2023-04-04T10:37:35.018Z,99087.84
2023-04-04T10:39:43.680Z,99086.78
2023-04-04T10:41:54.161Z,99076.31
2023-04-04T10:44:04.343Z,99080.53
2023-04-04T10:46:14.318Z,99084.56
2023-04-04T10:48:20.040Z,99066.22
2023-04-04T10:50:28.406Z,99066.13
2023-04-04T10:52:34.341Z,99062.25
2023-04-04T10:54:39.589Z,99073.16
2023-04-04T10:56:45.176Z,99067.97
2023-04-04T10:58:52.934Z,99073.84
2023-04-04T11:00:59.241Z,99067.44
2023-04-04T11:03:05.298Z,99079.53
2023-04-04T11:05:14.395Z,99064.84
2023-04-04T11:07:20.810Z,99068.97
2023-04-04T11:09:53.602Z,99077.13
2023-04-04T11:12:22.517Z,99071.44
2023-04-04T11:14:36.482Z,99067.25
2023-04-04T11:16:49.151Z,99067.34
2023-04-04T11:18:55.282Z,99071.56
2023-04-04T11:21:00.504Z,99062.91
2023-04-04T11:23:06.437Z,99073.56
2023-04-04T11:25:31.411Z,99063.34
2023-04-04T11:27:37.578Z,99065.84
2023-04-04T11:29:55.976Z,99060.50
2023-04-04T11:32:01.230Z,99062.28
2023-04-04T11:34:06.966Z,99068.16
2023-04-04T11:36:26.528Z,99064.47
2023-04-04T11:38:34.954Z,99054.19
2023-04-04T11:40:42.936Z,99050.91
2023-04-04T11:42:48.486Z,99056.94
2023-04-04T11:45:10.404Z,99050.78
2023-04-04T11:47:16.137Z,99042.03
2023-04-04T11:49:21.379Z,99042.63
2023-04-04T11:51:28.651Z,99038.06
2023-04-04T11:53:35.373Z,99033.50
2023-04-04T11:55:47.771Z,99033.25
2023-04-04T11:57:55.814Z,99033.91
2023-04-04T12:00:05.628Z,99026.56
2023-04-04T12:02:19.759Z,99029.69
2023-04-04T12:04:25.622Z,99023.34
2023-04-04T12:06:35.706Z,99033.06
2023-04-04T12:08:42.607Z,99032.81
2023-04-04T12:10:48.182Z,99032.38
2023-04-04T12:12:53.121Z,99035.47
2023-04-04T12:15:10.232Z,99025.44
2023-04-04T12:17:23.175Z,99017.66
2023-04-04T12:19:28.768Z,99025.69
2023-04-04T12:21:35.362Z,99029.19
2023-04-04T12:23:42.026Z,99039.16
2023-04-04T12:25:50.099Z,99030.75
2023-04-04T12:27:56.603Z,99026.19
2023-04-04T12:30:04.331Z,99020.53
2023-04-04T12:32:10.960Z,99017.44
2023-04-04T12:34:24.351Z,99022.25
2023-04-04T12:36:30.023Z,99026.00
2023-04-04T12:38:35.436Z,99023.09
2023-04-04T12:40:42.319Z,99017.31
2023-04-04T12:42:47.481Z,99019.13
2023-04-04T12:44:54.795Z,99012.66
2023-04-04T12:47:02.389Z,99014.53
2023-04-04T12:49:09.673Z,99006.66
2023-04-04T12:51:18.853Z,99003.56
2023-04-04T12:53:29.104Z,98995.59
2023-04-04T12:55:34.831Z,98997.19
2023-04-04T12:57:42.481Z,99007.06
2023-04-04T12:59:50.205Z,98989.63
2023-04-04T13:01:56.026Z,98995.16
2023-04-04T13:04:01.488Z,98986.66
2023-04-04T13:06:06.615Z,98995.53
2023-04-04T13:08:15.640Z,98983.06
2023-04-04T13:10:21.589Z,98988.34
2023-04-04T13:12:26.642Z,98987.78
2023-04-04T13:14:32.017Z,98985.75
2023-04-04T13:16:38.470Z,98986.00
2023-04-04T13:18:45.106Z,98986.09
2023-04-04T13:20:50.690Z,98983.56
2023-04-04T13:23:01.811Z,98978.38
2023-04-04T13:25:11.082Z,98974.66
2023-04-04T13:27:16.024Z,98976.88
2023-04-04T13:29:22.099Z,98977.59
2023-04-04T13:31:27.362Z,98973.16
2023-04-04T13:33:32.011Z,98972.19
2023-04-04T13:35:37.031Z,98970.66
2023-04-04T13:37:42.049Z,98963.75
2023-04-04T13:39:47.069Z,98965.38
2023-04-04T13:41:54.730Z,98960.94
2023-04-04T13:43:59.708Z,98966.78
2023-04-04T13:46:04.686Z,98957.16
2023-04-04T13:48:09.632Z,98950.03
2023-04-04T13:50:14.827Z,98956.56
2023-04-04T13:52:19.791Z,98955.59
2023-04-04T13:54:24.681Z,98951.59
2023-04-04T13:56:29.688Z,98959.81
2023-04-04T13:58:37.188Z,98953.38
2023-04-04T14:00:42.266Z,98946.53
2023-04-04T14:02:49.241Z,98943.22
2023-04-04T14:04:54.269Z,98941.53
2023-04-04T14:06:59.209Z,98944.97
2023-04-04T14:09:04.206Z,98949.50
2023-04-04T14:11:09.385Z,98952.28
2023-04-04T14:13:14.534Z,98947.50
2023-04-04T14:15:22.593Z,98948.56
2023-04-04T14:17:27.567Z,98950.47
2023-04-04T14:19:32.458Z,98950.50
2023-04-04T14:21:37.944Z,98949.59
2023-04-04T14:23:42.827Z,98944.13
2023-04-04T14:25:49.966Z,98942.25
2023-04-04T14:27:54.955Z,98938.50
2023-04-04T14:29:59.937Z,98933.88
2023-04-04T14:32:07.465Z,98939.84
2023-04-04T14:34:12.434Z,98930.41
2023-04-04T14:36:19.214Z,98930.38
2023-04-04T14:38:24.204Z,98925.13
2023-04-04T14:40:32.605Z,98915.63
2023-04-04T14:42:37.567Z,98916.84
2023-04-04T14:44:42.498Z,98921.91
2023-04-04T14:46:47.644Z,98922.22
2023-04-04T14:48:55.700Z,98922.63
2023-04-04T14:51:00.602Z,98922.78
2023-04-04T14:53:05.505Z,98929.63
2023-04-04T14:55:12.546Z,98932.59
2023-04-04T14:57:17.877Z,98924.94
2023-04-04T14:59:22.969Z,98929.69
2023-04-04T15:01:28.003Z,98928.84
2023-04-04T15:03:34.973Z,98931.28
2023-04-04T15:05:42.932Z,98936.34
2023-04-04T15:07:49.228Z,98929.84
2023-04-04T15:09:54.254Z,98923.75
2023-04-04T15:12:01.822Z,98923.69
2023-04-04T15:14:07.018Z,98928.94
2023-04-04T15:16:11.749Z,98925.53
2023-04-04T15:18:16.703Z,98922.81
2023-04-04T15:20:21.676Z,98921.91
2023-04-04T15:22:29.254Z,98924.44
2023-04-04T15:24:34.933Z,98919.19
2023-04-04T15:26:39.885Z,98913.94
2023-04-04T15:28:44.787Z,98918.16
2023-04-04T15:30:49.793Z,98912.06
2023-04-04T15:32:54.751Z,98912.91
2023-04-04T15:34:59.706Z,98911.22
2023-04-04T15:37:04.820Z,98906.88
2023-04-04T15:39:14.036Z,98906.81
2023-04-04T15:41:18.931Z,98903.31
2023-04-04T15:43:24.275Z,98901.66
2023-04-04T15:45:29.499Z,98899.56
2023-04-04T15:47:34.217Z,98901.59
2023-04-04T15:49:39.266Z,98902.88
2023-04-04T15:51:45.276Z,98897.66
2023-04-04T15:53:50.157Z,98903.56
2023-04-04T15:55:57.852Z,98906.69
2023-04-04T15:58:02.760Z,98905.69
2023-04-04T16:00:09.928Z,98905.41
2023-04-04T16:02:15.046Z,98905.75
2023-04-04T16:04:20.088Z,98906.09
2023-04-04T16:06:26.275Z,98908.09
2023-04-04T16:08:31.179Z,98904.09
2023-04-04T16:10:36.183Z,98900.03
2023-04-04T16:12:43.771Z,98902.03
2023-04-04T16:14:48.790Z,98901.38
2023-04-04T16:16:53.802Z,98897.84
2023-04-04T16:18:58.685Z,98896.34
2023-04-04T16:21:05.771Z,98895.09
2023-04-04T16:23:10.706Z,98892.72
2023-04-04T16:25:15.836Z,98894.38
2023-04-04T16:27:20.689Z,98896.09
2023-04-04T16:29:31.284Z,98899.81
2023-04-04T16:31:36.466Z,98888.56
2023-04-04T16:33:41.825Z,98897.53
2023-04-04T16:35:46.672Z,98894.09
2023-04-04T16:37:51.573Z,98888.94
2023-04-04T16:39:56.805Z,98889.88
2023-04-04T16:42:02.528Z,98887.28
2023-04-04T16:44:08.243Z,98888.91
2023-04-04T16:46:15.791Z,98883.59
2023-04-04T16:48:20.742Z,98879.38
2023-04-04T16:50:25.862Z,98884.50
2023-04-04T16:52:30.710Z,98883.84
2023-04-04T16:54:35.693Z,98880.31
2023-04-04T16:56:40.568Z,98875.97
2023-04-04T16:58:45.883Z,98880.22
2023-04-04T17:00:50.735Z,98870.91
2023-04-04T17:02:58.396Z,98880.47
2023-04-04T17:05:03.392Z,98873.44
2023-04-04T17:07:08.871Z,98873.31
2023-04-04T17:09:13.785Z,98874.03
2023-04-04T17:11:18.820Z,98872.25
2023-04-04T17:13:23.856Z,98868.03
2023-04-04T17:15:28.820Z,98872.31
2023-04-04T17:17:33.932Z,98869.75
2023-04-04T17:19:41.704Z,98866.22
2023-04-04T17:21:47.213Z,98870.44
2023-04-04T17:23:52.188Z,98866.06
2023-04-04T17:25:57.117Z,98862.84
2023-04-04T17:28:02.716Z,98860.22
2023-04-04T17:30:08.755Z,98869.75
2023-04-04T17:32:13.778Z,98859.41
2023-04-04T17:34:18.873Z,98859.41
2023-04-04T17:36:27.322Z,98859.47
2023-04-04T17:38:33.581Z,98862.91
2023-04-04T17:40:40.954Z,98858.69
2023-04-04T17:42:46.288Z,98865.75
2023-04-04T17:44:51.225Z,98863.28
2023-04-04T17:46:56.110Z,98862.47
2023-04-04T17:49:01.536Z,98855.56
2023-04-04T17:51:08.374Z,98858.25
2023-04-04T17:53:15.974Z,98856.59
2023-04-04T17:55:21.301Z,98854.88
2023-04-04T17:57:25.927Z,98860.19
2023-04-04T17:59:30.928Z,98853.31
2023-04-04T18:01:38.015Z,98861.13
2023-04-04T18:03:43.140Z,98859.41
2023-04-04T18:05:48.813Z,98861.16
2023-04-04T18:07:54.055Z,98856.84
2023-04-04T18:10:01.379Z,98857.84
2023-04-04T18:12:06.807Z,98863.06
2023-04-04T18:14:12.112Z,98857.13
2023-04-04T18:16:17.671Z,98860.59
2023-04-04T18:18:24.317Z,98859.75
2023-04-04T18:20:42.400Z,98870.03
2023-04-04T18:22:48.592Z,98858.00
2023-04-04T18:24:53.767Z,98862.28
2023-04-04T18:27:01.696Z,98864.78
2023-04-04T18:29:07.012Z,98852.75
2023-04-04T18:31:12.593Z,98865.63
2023-04-04T18:33:17.558Z,98861.31
2023-04-04T18:35:22.488Z,98866.47
2023-04-04T18:37:27.657Z,98867.41
2023-04-04T18:39:32.987Z,98870.09
2023-04-04T18:41:38.058Z,98870.16
2023-04-04T18:43:45.700Z,98873.66
2023-04-04T18:45:51.027Z,98870.22
2023-04-04T18:47:55.905Z,98879.81
2023-04-04T18:50:00.853Z,98873.91
2023-04-04T18:52:05.818Z,98870.47
2023-04-04T18:54:10.714Z,98878.25
2023-04-04T18:56:15.819Z,98876.59
2023-04-04T18:58:20.548Z,98877.56
2023-04-04T19:00:28.604Z,98880.09
2023-04-04T19:02:34.305Z,98878.38
2023-04-04T19:04:39.606Z,98880.97
2023-04-04T19:06:45.325Z,98879.31
2023-04-04T19:08:51.407Z,98883.66
2023-04-04T19:10:56.465Z,98887.91
2023-04-04T19:13:01.625Z,98887.88
2023-04-04T19:15:07.122Z,98893.91
2023-04-04T19:17:15.815Z,98891.34
2023-04-04T19:19:21.712Z,98889.63
2023-04-04T19:21:26.968Z,98895.63
2023-04-04T19:23:31.927Z,98890.53
2023-04-04T19:25:39.887Z,98897.53
2023-04-04T19:27:45.017Z,98888.91
2023-04-04T19:29:50.202Z,98895.81
2023-04-04T19:31:56.258Z,98903.59
2023-04-04T19:34:05.959Z,98898.50
2023-04-04T19:36:12.229Z,98899.38
2023-04-04T19:38:24.332Z,98901.09
2023-04-04T19:40:51.211Z,98894.31
2023-04-04T19:43:02.965Z,98889.25
2023-04-04T19:45:18.257Z,98891.84
2023-04-04T19:47:23.585Z,98886.72
2023-04-04T19:49:33.889Z,98902.25
2023-04-04T19:52:05.975Z,98894.53
2023-04-04T19:54:15.657Z,98894.56
2023-04-04T19:56:26.363Z,98893.72
2023-04-04T19:58:49.827Z,98902.34
2023-04-04T20:01:00.528Z,98900.66
2023-04-04T20:03:34.379Z,98893.72
2023-04-04T20:06:03.654Z,98905.75
2023-04-04T20:08:09.674Z,98906.66
2023-04-04T20:10:14.989Z,98913.56
2023-04-04T20:12:21.370Z,98907.63
2023-04-04T20:14:27.364Z,98907.69
2023-04-04T20:16:33.531Z,98917.19
2023-04-04T20:18:40.113Z,98919.78
2023-04-04T20:21:00.110Z,98913.78
2023-04-04T20:23:09.176Z,98915.56
2023-04-04T20:25:44.809Z,98917.31
2023-04-04T20:27:49.790Z,98917.28
2023-04-04T20:29:56.341Z,98918.16
2023-04-04T20:32:02.771Z,98921.66
2023-04-04T20:34:09.111Z,98919.97
2023-04-04T20:36:16.426Z,98914.84
2023-04-04T20:38:24.017Z,98920.84
2023-04-04T20:40:41.805Z,98913.97
2023-04-04T20:42:48.017Z,98920.00
2023-04-04T20:44:52.974Z,98917.41
2023-04-04T20:46:58.839Z,98919.16
2023-04-04T20:49:03.770Z,98918.28
2023-04-04T20:51:33.830Z,98919.97
2023-04-04T20:53:41.576Z,98921.72
2023-04-04T20:55:46.534Z,98918.34
2023-04-04T20:57:51.918Z,98920.88
2023-04-04T20:59:56.958Z,98922.59
2023-04-04T21:02:13.660Z,98923.47
2023-04-04T21:04:26.462Z,98916.63
2023-04-04T21:06:32.580Z,98930.38
2023-04-04T21:08:44.857Z,98934.69
2023-04-04T21:10:53.401Z,98928.66
2023-04-04T21:13:00.886Z,98938.09
2023-04-04T21:15:12.127Z,98934.69
2023-04-04T21:17:17.222Z,98925.25
2023-04-04T21:19:23.537Z,98931.25
2023-04-04T21:21:29.692Z,98930.41
2023-04-04T21:23:33.242Z,98938.13
2023-04-04T21:25:47.777Z,98936.41
2023-04-04T21:27:56.674Z,98932.13
2023-04-04T21:30:01.758Z,98937.28
2023-04-04T21:32:08.709Z,98935.56
2023-04-04T21:34:16.219Z,98927.84
2023-04-04T21:36:31.346Z,98935.56
2023-04-04T21:38:37.916Z,98933.00
2023-04-04T21:40:42.919Z,98930.47
2023-04-04T21:42:50.437Z,98936.50
2023-04-04T21:44:55.434Z,98930.50
2023-04-04T21:47:00.942Z,98928.78
2023-04-04T21:49:07.075Z,98927.06
2023-04-04T21:51:11.947Z,98928.78
2023-04-04T21:53:17.596Z,98927.94
2023-04-04T21:55:22.583Z,98922.78
2023-04-04T21:57:27.503Z,98920.22
2023-04-04T21:59:35.012Z,98921.91
2023-04-04T22:01:41.148Z,98924.47
2023-04-04T22:03:46.356Z,98920.22
2023-04-04T22:05:51.396Z,98925.38
2023-04-04T22:07:56.393Z,98921.97
2023-04-04T22:10:04.444Z,98927.13
2023-04-04T22:12:16.200Z,98922.84
2023-04-04T22:14:21.095Z,98925.41
2023-04-04T22:16:28.737Z,98927.13
2023-04-04T22:18:34.227Z,98924.53
2023-04-04T22:20:39.489Z,98921.97
2023-04-04T22:22:46.002Z,98923.69
2023-04-04T22:24:51.529Z,98921.13
2023-04-04T22:26:57.452Z,98921.09
2023-04-04T22:29:03.512Z,98922.81
2023-04-04T22:31:08.949Z,98915.94
2023-04-04T22:33:16.365Z,98919.41
2023-04-04T22:35:21.365Z,98912.53
2023-04-04T22:37:27.607Z,98914.28
2023-04-04T22:39:32.739Z,98915.13
2023-04-04T22:41:37.625Z,98914.28
2023-04-04T22:43:42.556Z,98911.72
2023-04-04T22:45:47.551Z,98910.00
2023-04-04T22:47:52.672Z,98909.13
2023-04-04T22:50:04.847Z,98910.00
2023-04-04T22:52:11.350Z,98899.72
2023-04-04T22:54:17.567Z,98904.00
2023-04-04T22:56:22.655Z,98904.03
2023-04-04T22:58:27.837Z,98903.13
2023-04-04T23:00:32.760Z,98901.44
2023-04-04T23:02:37.657Z,98902.28
2023-04-04T23:04:42.634Z,98899.72
2023-04-04T23:06:50.315Z,98901.44
2023-04-04T23:08:55.217Z,98894.56
2023-04-04T23:11:00.303Z,98891.16
2023-04-04T23:13:05.620Z,98888.59
2023-04-04T23:15:13.504Z,98895.44
2023-04-04T23:17:18.630Z,98897.19
2023-04-04T23:19:23.514Z,98884.31
2023-04-04T23:21:29.013Z,98881.75
2023-04-04T23:23:36.852Z,98891.16
2023-04-04T23:25:42.029Z,98885.16
2023-04-04T23:27:46.635Z,98886.03
2023-04-04T23:29:51.568Z,98890.34
2023-04-04T23:31:56.404Z,98880.06
2023-04-04T23:34:01.478Z,98882.63
2023-04-04T23:36:06.593Z,98883.47
2023-04-04T23:38:13.567Z,98883.44
2023-04-04T23:40:21.328Z,98886.88
2023-04-04T23:42:26.791Z,98874.88
2023-04-04T23:44:31.642Z,98886.91
2023-04-04T23:46:37.038Z,98878.31
2023-04-04T23:48:42.057Z,98884.31
2023-04-04T23:50:47.091Z,98874.88
2023-04-04T23:52:51.966Z,98869.75
2023-04-04T23:54:57.043Z,98866.31
2023-04-04T23:57:04.499Z,98867.16
2023-04-04T23:59:10.049Z,98874.88
